This is the latest recevied weather packets stored in our database for station/object DW2488. If no packets are shown the sender has not sent any weather packets the latest 10 day(s).
| Time | Temp. | Humidity | Pressure | Rain* | Wind** | Luminosity | Snow |
|---|---|---|---|---|---|---|---|
| 1778115111 | 15.56° C | 36% | 1015 hPa | 0 mm | - | 622 W/m² | - |
| 1778114215 | 15° C | 45% | 1015.1 hPa | 0 mm | - | 605 W/m² | - |
| 1778113307 | 14.44° C | 51% | 1014.9 hPa | 0 mm | - | 262 W/m² | - |
| 1778112405 | 14.44° C | 55% | 1014.9 hPa | 0 mm | - | 255 W/m² | - |
| 1778111504 | 14.44° C | 60% | 1014.9 hPa | 0 mm | - | 134 W/m² | - |
| 1778110596 | 15.56° C | 58% | 1014.3 hPa | 0 mm | - | 178 W/m² | - |
| 1778109695 | 15.56° C | 61% | 1014.1 hPa | 0 mm | - | 221 W/m² | - |
| 1778108806 | 16.67° C | 60% | 1014 hPa | 0 mm | - | 156 W/m² | - |
| 1778107894 | 15.56° C | 62% | 1013.9 hPa | 0 mm | - | 404 W/m² | - |
| 1778106988 | 15° C | 62% | 1014 hPa | 0 mm | - | 90 W/m² | - |
| 1778106089 | 14.44° C | 65% | 1013.8 hPa | 0 mm | - | 33 W/m² | - |
| 1778105187 | 11.67° C | 73% | 1013.4 hPa | 0 mm | - | 25 W/m² | - |
| 1778104284 | 10.56° C | 74% | 1013.1 hPa | 0 mm | - | 23 W/m² | - |
| 1778103805 | 10° C | 75% | 1013.2 hPa | 0 mm | - | 19 W/m² | - |
| 1778103380 | 10° C | 75% | 1013.2 hPa | 0 mm | - | 19 W/m² | - |
| 1778102477 | 10° C | 75% | 1013 hPa | 0 mm | - | 16 W/m² | - |
| 1778101573 | 10° C | 74% | 1012.9 hPa | 0 mm | - | 12 W/m² | - |
| 1778100674 | 9.44° C | 73% | 1012.7 hPa | 0 mm | - | 9 W/m² | - |
| 1778099776 | 8.89° C | 75% | 1012.7 hPa | 0 mm | - | 0 W/m² | - |
| 1778098872 | 8.89° C | 75% | 1012.6 hPa | 0 mm | - | 0 W/m² | - |
| 1778097973 | 9.44° C | 72% | 1012.8 hPa | 0 mm | - | 0 W/m² | - |
| 1778097074 | 10.56° C | 70% | 1012.8 hPa | 0 mm | - | 0 W/m² | - |
| 1778096179 | 11.11° C | 68% | 1012.9 hPa | 0 mm | - | 0 W/m² | - |
| 1778095272 | 11.67° C | 67% | 1012.8 hPa | 0 mm | - | 0 W/m² | - |
| 1778094373 | 10.56° C | 70% | 1012.9 hPa | 0 mm | - | 0 W/m² | - |
* Rain latest hour (hover to see other rain measurements)
** Current wind speed in m/s (hover to see current wind gust speed)